Destin, Florida
Current Conditions -  °F | °C
As of 4:53 PM on Wednesday 17 Dec 2014 (Local Time) from KDTS Reporting Station
Clear Clear  
Wind Chill: 57°   Ceiling: Unl
Heat Index: 57°   Visibility: 10mi
Dew Point: 45°   Wind: 0mph
Humidity: 64%   Direction: NA
Pressure: 30.18"   Gusts: NA
Location:  30.39°N, 86.49°W
Report Text: KDTS 172253Z AUTO 00000KT 10SM CLR 14/07 A3018 RMK AO2 SLP219 T01390072 TSNO
Loading
Personal Weather Stations






























Interactive Weather Map New forecast layout! Learn more

10-Day Weather Forecast

Advertisements
Track Severe Weather on mobile